Time;durP1;ratioP1;P1;durP2;ratioP2;P2;SDS_P1;SDS_P2;PMS_P1;PMS_P2;Temp;Humidity;BMP_temperature;BMP_pressure;BME280_temperature;BME280_humidity;BME280_pressure;Samples;Min_cycle;Max_cycle;Signal;HPM_P1;HPM_P2
2023/08/22 00:00:29;;;;;;;3.70;1.25;;;20.40;95.60;;;;;;5051107;28;20035;-72
2023/08/22 00:02:55;;;;;;;3.25;1.00;;;20.40;95.60;;;;;;5052075;28;20510;-72
2023/08/22 00:05:22;;;;;;;3.33;0.95;;;20.30;95.70;;;;;;5049587;28;20033;-72
2023/08/22 00:07:48;;;;;;;8.48;1.02;;;20.30;95.70;;;;;;5051813;28;20029;-72
2023/08/22 00:10:14;;;;;;;3.75;1.25;;;20.30;95.70;;;;;;5039321;28;20028;-72
2023/08/22 00:12:40;;;;;;;2.83;1.20;;;20.40;95.70;;;;;;5054697;28;20041;-72
2023/08/22 00:15:09;;;;;;;2.00;1.77;;;20.40;95.70;;;;;;5051237;28;20025;-72
2023/08/22 00:17:35;;;;;;;4.13;1.67;;;20.50;95.70;;;;;;5059385;28;20475;-72
2023/08/22 00:20:00;;;;;;;6.50;1.55;;;20.70;95.60;;;;;;5052770;28;20029;-72
2023/08/22 00:22:26;;;;;;;3.28;1.45;;;20.70;95.50;;;;;;5050697;28;20029;-72
2023/08/22 00:24:51;;;;;;;6.63;1.52;;;20.80;95.50;;;;;;5051677;28;20048;-72
2023/08/22 00:27:17;;;;;;;5.88;1.13;;;20.90;95.30;;;;;;5055917;28;20483;-72
2023/08/22 00:29:42;;;;;;;4.72;1.15;;;20.90;95.10;;;;;;5055653;28;20095;-72
2023/08/22 00:32:08;;;;;;;4.72;1.38;;;20.80;94.70;;;;;;5051172;28;20017;-72
2023/08/22 00:34:33;;;;;;;5.50;1.58;;;20.70;94.90;;;;;;5052865;28;20021;-72
2023/08/22 00:36:59;;;;;;;7.40;2.38;;;20.80;94.90;;;;;;5050100;28;20032;-72
2023/08/22 00:39:24;;;;;;;9.32;1.45;;;20.90;95.00;;;;;;5054562;28;20042;-72
2023/08/22 00:41:50;;;;;;;4.13;1.02;;;20.90;95.00;;;;;;5051851;28;20506;-72
2023/08/22 00:44:15;;;;;;;4.65;1.50;;;21.00;94.80;;;;;;5054872;28;20025;-72
2023/08/22 00:46:41;;;;;;;4.78;1.08;;;21.00;94.70;;;;;;5050405;28;20029;-72
2023/08/22 00:49:09;;;;;;;1.98;1.00;;;21.00;94.70;;;;;;5057915;28;20052;-72
2023/08/22 00:51:37;;;;;;;3.05;1.35;;;21.00;94.70;;;;;;5049673;28;20037;-72
2023/08/22 00:54:02;;;;;;;3.53;1.08;;;20.90;94.70;;;;;;5052881;28;20013;-72
2023/08/22 00:56:29;;;;;;;3.10;1.30;;;20.90;94.50;;;;;;5050261;28;20538;-71
2023/08/22 00:58:57;;;;;;;2.67;1.23;;;20.80;94.60;;;;;;5050476;28;20028;-72
2023/08/22 01:01:23;;;;;;;5.65;1.42;;;20.80;94.60;;;;;;5050269;28;20037;-72
2023/08/22 01:03:49;;;;;;;3.83;1.55;;;20.80;94.60;;;;;;5051896;28;20400;-72
2023/08/22 01:06:24;;;;;;;1.90;0.80;;;20.80;94.60;;;;;;5053548;28;20045;-72
2023/08/22 01:08:57;;;;;;;5.30;1.77;;;20.80;94.20;;;;;;5050547;28;20086;-71
2023/08/22 01:11:33;;;;;;;1.27;0.85;;;20.70;94.30;;;;;;5045544;28;20037;-72
2023/08/22 01:14:04;;;;;;;4.68;1.05;;;20.60;94.30;;;;;;5048609;28;20104;-72
2023/08/22 01:16:30;;;;;;;9.15;1.30;;;20.60;94.40;;;;;;5047796;28;20029;-71
2023/08/22 01:19:00;;;;;;;3.53;1.38;;;20.70;94.30;;;;;;5050519;28;20021;-72
2023/08/22 01:21:26;;;;;;;3.38;1.38;;;20.70;94.30;;;;;;5050414;28;20052;-71
2023/08/22 01:23:52;;;;;;;5.20;1.63;;;20.70;94.20;;;;;;5050431;28;20049;-71
2023/08/22 01:26:17;;;;;;;3.92;1.33;;;20.70;94.20;;;;;;5048760;28;20029;-71
2023/08/22 01:28:46;;;;;;;4.03;0.98;;;20.80;94.30;;;;;;5048851;28;20021;-72
2023/08/22 01:31:36;;;;;;;2.95;1.00;;;20.90;94.30;;;;;;5054006;28;20067;-72
2023/08/22 01:34:26;;;;;;;4.30;1.27;;;21.00;93.90;;;;;;5046649;28;20024;-72
2023/08/22 01:36:54;;;;;;;2.03;0.93;;;21.00;93.90;;;;;;5030502;28;20025;-72
2023/08/22 01:39:22;;;;;;;3.85;1.10;;;21.00;93.80;;;;;;5057092;28;20034;-72
2023/08/22 01:41:48;;;;;;;2.92;1.33;;;21.00;93.90;;;;;;5054182;28;20020;-72
2023/08/22 01:44:14;;;;;;;4.13;1.13;;;21.00;93.90;;;;;;5054407;28;20483;-71
2023/08/22 01:46:40;;;;;;;4.85;1.30;;;21.00;93.50;;;;;;5050691;28;20028;-71
2023/08/22 01:49:05;;;;;;;1.20;0.82;;;21.00;93.50;;;;;;5057815;28;20027;-71
2023/08/22 01:51:31;;;;;;;7.05;1.17;;;20.90;93.70;;;;;;5055412;28;20300;-72
2023/08/22 01:53:56;;;;;;;1.73;0.80;;;20.90;93.50;;;;;;5059046;28;20423;-72
2023/08/22 01:56:22;;;;;;;3.45;1.38;;;20.90;93.70;;;;;;5053532;28;20426;-71
2023/08/22 01:58:47;;;;;;;4.43;1.23;;;20.90;93.70;;;;;;5054355;28;20029;-71
2023/08/22 02:01:13;;;;;;;2.63;1.15;;;20.90;93.70;;;;;;5054085;28;20029;-71
2023/08/22 02:03:40;;;;;;;4.45;0.98;;;21.00;93.70;;;;;;5054085;28;20040;-72
2023/08/22 02:06:06;;;;;;;4.55;1.52;;;21.00;93.40;;;;;;5061569;28;20025;-72
2023/08/22 02:08:31;;;;;;;3.55;1.08;;;20.90;93.30;;;;;;5053888;28;20483;-71
2023/08/22 02:10:57;;;;;;;2.08;1.10;;;20.80;92.80;;;;;;5061865;28;20081;-71
2023/08/22 02:13:22;;;;;;;2.17;0.75;;;20.70;93.00;;;;;;5056559;28;20021;-72
2023/08/22 02:15:48;;;;;;;2.22;0.85;;;20.60;93.20;;;;;;5048640;28;20030;-72
2023/08/22 02:18:14;;;;;;;5.65;1.70;;;20.60;93.20;;;;;;5050308;28;20029;-72
2023/08/22 02:20:39;;;;;;;5.93;1.40;;;20.70;93.40;;;;;;5059036;28;20029;-72
2023/08/22 02:23:05;;;;;;;6.32;1.30;;;20.70;93.50;;;;;;5054538;28;20383;-72
2023/08/22 02:25:32;;;;;;;4.93;1.40;;;20.70;93.40;;;;;;5061118;28;20033;-72
2023/08/22 02:27:58;;;;;;;6.85;1.23;;;20.70;93.50;;;;;;5056891;28;20527;-72
2023/08/22 02:30:24;;;;;;;4.00;1.10;;;20.80;93.50;;;;;;5058092;28;20064;-72
2023/08/22 02:32:50;;;;;;;3.83;1.52;;;20.80;93.70;;;;;;5052535;28;20041;-71
2023/08/22 02:35:15;;;;;;;16.77;1.85;;;20.70;93.40;;;;;;5053512;28;20099;-72
2023/08/22 02:37:41;;;;;;;5.63;1.05;;;20.60;93.30;;;;;;5053350;28;20140;-71
2023/08/22 02:40:09;;;;;;;1.90;1.08;;;20.60;93.40;;;;;;5053156;28;20029;-71
2023/08/22 02:42:35;;;;;;;2.88;0.95;;;20.60;93.40;;;;;;5053821;28;20495;-71
2023/08/22 02:45:01;;;;;;;2.67;1.10;;;20.50;93.50;;;;;;5059493;28;20025;-71
2023/08/22 02:47:27;;;;;;;3.72;1.15;;;20.50;93.60;;;;;;5051691;28;20036;-72
2023/08/22 02:49:53;;;;;;;4.45;1.27;;;20.50;93.60;;;;;;5048615;28;20044;-72
2023/08/22 02:52:18;;;;;;;3.58;1.08;;;20.50;93.80;;;;;;5059228;28;20056;-72
2023/08/22 02:54:44;;;;;;;4.40;1.00;;;20.50;93.70;;;;;;5053056;28;20379;-72
2023/08/22 02:57:10;;;;;;;7.97;1.42;;;20.50;93.70;;;;;;5052791;28;20013;-72
2023/08/22 02:59:35;;;;;;;10.27;1.70;;;20.50;93.70;;;;;;5057861;28;20456;-72
2023/08/22 03:02:01;;;;;;;5.97;1.00;;;20.60;93.80;;;;;;5053019;28;20060;-72
2023/08/22 03:04:27;;;;;;;7.32;1.75;;;20.60;93.80;;;;;;5052996;28;20063;-72
2023/08/22 03:06:52;;;;;;;3.70;1.40;;;20.60;93.90;;;;;;5053204;28;20104;-72
2023/08/22 03:09:18;;;;;;;3.72;0.82;;;20.60;93.80;;;;;;5055268;28;20037;-72
2023/08/22 03:11:43;;;;;;;3.95;1.38;;;20.60;93.90;;;;;;5052914;28;20051;-72
2023/08/22 03:14:09;;;;;;;4.43;1.40;;;20.60;93.90;;;;;;5054069;28;20365;-71
2023/08/22 03:16:34;;;;;;;3.38;1.13;;;20.60;93.80;;;;;;5053757;28;20032;-72
2023/08/22 03:19:00;;;;;;;5.72;1.10;;;20.50;93.90;;;;;;5054752;28;20028;-72
2023/08/22 03:21:25;;;;;;;2.05;0.95;;;20.50;93.90;;;;;;5056279;28;20025;-72
2023/08/22 03:23:51;;;;;;;2.00;1.08;;;20.50;94.00;;;;;;5055494;28;20025;-72
2023/08/22 03:26:16;;;;;;;2.47;1.00;;;20.60;94.00;;;;;;5052764;28;20380;-72
2023/08/22 03:28:42;;;;;;;7.18;1.10;;;20.60;93.90;;;;;;5053010;28;20016;-72
2023/08/22 03:31:07;;;;;;;2.40;1.33;;;20.60;93.90;;;;;;5057011;28;20024;-72
2023/08/22 03:33:33;;;;;;;4.80;1.83;;;20.60;93.90;;;;;;5054203;28;20029;-72
2023/08/22 03:36:00;;;;;;;2.35;0.82;;;20.50;93.90;;;;;;5053234;28;20021;-72
2023/08/22 03:38:25;;;;;;;1.67;1.10;;;20.50;93.90;;;;;;5060990;28;20044;-72
2023/08/22 03:40:52;;;;;;;5.57;1.95;;;20.40;93.90;;;;;;5050428;28;20025;-72
2023/08/22 03:43:18;;;;;;;2.55;1.00;;;20.40;94.00;;;;;;5052099;28;20032;-72
2023/08/22 03:45:45;;;;;;;3.10;0.80;;;20.40;94.00;;;;;;5051155;28;20025;-72
2023/08/22 03:48:11;;;;;;;3.38;1.38;;;20.30;94.10;;;;;;5052331;28;20111;-72
2023/08/22 03:50:40;;;;;;;5.40;1.52;;;20.30;94.20;;;;;;5048817;28;20116;-72
2023/08/22 03:53:06;;;;;;;5.70;1.35;;;20.30;94.20;;;;;;5040884;28;20047;-72
2023/08/22 03:55:32;;;;;;;5.45;1.30;;;20.30;94.20;;;;;;5043569;28;20028;-72
2023/08/22 03:57:58;;;;;;;5.50;0.90;;;20.30;94.30;;;;;;5045057;28;20020;-72
2023/08/22 04:00:24;;;;;;;4.15;1.33;;;20.30;94.30;;;;;;5049376;28;20468;-71
2023/08/22 04:02:54;;;;;;;5.15;1.30;;;20.30;94.30;;;;;;5051757;28;20033;-71
2023/08/22 04:05:20;;;;;;;4.70;1.27;;;20.40;94.40;;;;;;5051956;28;20112;-71
2023/08/22 04:07:45;;;;;;;2.95;1.08;;;20.40;94.40;;;;;;5051776;28;20120;-71
2023/08/22 04:10:11;;;;;;;2.70;1.35;;;20.50;94.20;;;;;;5047489;28;20025;-71
2023/08/22 04:12:36;;;;;;;6.30;1.52;;;20.50;94.20;;;;;;5051650;28;20483;-71
2023/08/22 04:15:02;;;;;;;7.82;1.60;;;20.50;94.10;;;;;;5052015;28;20032;-71
2023/08/22 04:17:27;;;;;;;4.75;1.35;;;20.50;94.20;;;;;;5050642;28;20032;-71
2023/08/22 04:19:53;;;;;;;5.38;1.27;;;20.50;94.00;;;;;;5050397;28;20379;-71
2023/08/22 04:22:18;;;;;;;2.72;0.95;;;20.40;94.10;;;;;;5050597;28;20163;-71
2023/08/22 04:24:44;;;;;;;3.15;0.95;;;20.50;94.10;;;;;;5055245;28;20029;-71
2023/08/22 04:27:09;;;;;;;3.88;1.27;;;20.50;94.00;;;;;;5051061;28;20037;-70
2023/08/22 04:29:35;;;;;;;5.93;1.23;;;20.50;94.00;;;;;;5060764;28;20025;-73
2023/08/22 04:32:03;;;;;;;2.97;1.25;;;20.50;94.10;;;;;;5054173;28;20017;-73
2023/08/22 04:34:29;;;;;;;18.77;1.83;;;20.60;94.00;;;;;;5048819;28;20104;-73
2023/08/22 04:36:54;;;;;;;4.95;1.08;;;20.60;93.90;;;;;;5053823;28;20056;-73
2023/08/22 04:39:20;;;;;;;4.88;1.17;;;20.60;93.80;;;;;;5054222;28;20373;-73
2023/08/22 04:41:46;;;;;;;8.73;1.63;;;20.60;93.90;;;;;;5053328;28;20031;-73
2023/08/22 04:44:11;;;;;;;2.80;0.82;;;20.60;93.90;;;;;;5054085;28;20024;-73
2023/08/22 04:46:37;;;;;;;4.40;1.23;;;20.60;93.90;;;;;;5053229;28;20017;-73
2023/08/22 04:49:02;;;;;;;4.15;1.20;;;20.50;93.90;;;;;;5052445;28;20044;-73
2023/08/22 04:51:28;;;;;;;4.03;1.08;;;20.60;93.90;;;;;;5053074;28;20120;-73
2023/08/22 04:53:54;;;;;;;4.05;1.80;;;20.50;94.00;;;;;;5051881;28;20025;-74
2023/08/22 04:56:19;;;;;;;3.80;1.45;;;20.50;94.00;;;;;;5051756;28;20032;-74
2023/08/22 04:58:45;;;;;;;9.25;1.30;;;20.50;94.10;;;;;;5051465;28;20029;-74
2023/08/22 05:01:11;;;;;;;4.95;1.83;;;20.40;94.10;;;;;;5051965;28;20048;-74
2023/08/22 05:03:37;;;;;;;6.97;1.50;;;20.40;94.40;;;;;;5052146;28;20494;-74
2023/08/22 05:06:02;;;;;;;5.15;1.40;;;20.40;94.40;;;;;;5033960;28;20640;-74
2023/08/22 05:08:28;;;;;;;6.43;1.45;;;20.40;94.40;;;;;;5047357;28;20028;-74
2023/08/22 05:10:53;;;;;;;5.28;1.08;;;20.50;94.50;;;;;;5050667;28;20387;-75
2023/08/22 05:13:19;;;;;;;1.98;1.20;;;20.50;94.40;;;;;;5046872;28;20043;-75
2023/08/22 05:15:44;;;;;;;6.28;0.95;;;20.50;94.40;;;;;;5050653;28;20438;-75
2023/08/22 05:18:10;;;;;;;6.13;1.08;;;20.60;94.40;;;;;;5049470;28;20448;-74
2023/08/22 05:20:37;;;;;;;2.80;1.00;;;20.60;94.30;;;;;;5050829;28;20027;-74
2023/08/22 05:23:03;;;;;;;3.60;1.20;;;20.50;94.40;;;;;;5051087;28;20479;-74
2023/08/22 05:25:28;;;;;;;4.82;1.02;;;20.50;94.50;;;;;;5050953;28;20075;-74
2023/08/22 05:27:54;;;;;;;2.40;1.52;;;20.50;94.40;;;;;;5050922;28;20025;-74
2023/08/22 05:30:21;;;;;;;6.20;1.33;;;20.50;94.50;;;;;;5049875;28;20578;-74
2023/08/22 05:32:47;;;;;;;4.07;1.65;;;20.50;94.40;;;;;;5049349;28;20043;-75
2023/08/22 05:35:12;;;;;;;7.25;1.25;;;20.50;94.40;;;;;;5050723;28;20029;-76
2023/08/22 05:37:38;;;;;;;4.65;1.13;;;20.50;94.40;;;;;;5051075;28;20033;-74
2023/08/22 05:40:06;;;;;;;5.22;1.65;;;20.50;94.30;;;;;;5051882;28;20450;-74
2023/08/22 05:42:32;;;;;;;7.25;1.63;;;20.50;94.30;;;;;;5050294;28;20036;-74
2023/08/22 05:44:58;;;;;;;5.25;2.45;;;20.50;94.20;;;;;;5052116;28;20033;-74
2023/08/22 05:47:23;;;;;;;6.47;1.38;;;20.50;94.20;;;;;;5051458;28;20029;-74
2023/08/22 05:49:49;;;;;;;3.40;1.50;;;20.50;94.20;;;;;;5033346;28;20071;-74
2023/08/22 05:52:14;;;;;;;3.90;1.70;;;20.60;94.20;;;;;;5051580;28;20083;-74
2023/08/22 05:54:41;;;;;;;8.02;2.90;;;20.60;94.20;;;;;;5050187;28;20021;-74
2023/08/22 05:57:07;;;;;;;11.32;2.05;;;20.60;94.20;;;;;;5051216;28;20028;-74
2023/08/22 05:59:32;;;;;;;4.47;2.00;;;20.60;94.00;;;;;;5051127;28;20434;-74
2023/08/22 06:01:58;;;;;;;12.05;3.17;;;20.60;94.10;;;;;;5051261;28;20029;-74
2023/08/22 06:04:24;;;;;;;8.00;3.35;;;20.60;94.10;;;;;;5051705;28;20043;-74
2023/08/22 06:06:50;;;;;;;8.45;2.28;;;20.70;94.20;;;;;;5051174;28;20480;-74
2023/08/22 06:09:15;;;;;;;8.38;2.40;;;20.70;94.30;;;;;;5050394;28;20032;-74
2023/08/22 06:11:41;;;;;;;8.07;2.75;;;20.70;94.10;;;;;;5051503;28;20025;-74
2023/08/22 06:14:07;;;;;;;9.50;3.30;;;20.70;94.20;;;;;;5051183;28;20021;-74
2023/08/22 06:16:32;;;;;;;12.95;3.92;;;20.70;94.20;;;;;;5051287;28;20361;-74
2023/08/22 06:18:58;;;;;;;8.15;3.70;;;20.80;94.30;;;;;;5050857;28;20479;-74
2023/08/22 06:21:23;;;;;;;7.97;3.60;;;20.80;94.20;;;;;;5051027;28;20503;-74
2023/08/22 06:23:49;;;;;;;8.10;3.22;;;20.90;94.30;;;;;;5052388;28;20029;-74
2023/08/22 06:26:14;;;;;;;8.20;5.45;;;20.90;94.40;;;;;;5051897;28;20112;-74
2023/08/22 06:28:40;;;;;;;12.38;7.68;;;20.90;94.40;;;;;;5054875;28;20483;-74
2023/08/22 06:31:06;;;;;;;7.50;2.90;;;20.90;94.40;;;;;;5054434;28;20503;-74
2023/08/22 06:33:31;;;;;;;10.25;5.40;;;20.90;94.40;;;;;;5054835;28;20013;-74
2023/08/22 06:35:57;;;;;;;8.15;3.78;;;20.90;94.40;;;;;;5054547;28;20101;-74
2023/08/22 06:38:23;;;;;;;14.93;8.23;;;20.90;94.30;;;;;;5054777;28;20044;-74
2023/08/22 06:40:49;;;;;;;4.80;2.42;;;20.90;94.40;;;;;;5049263;28;20033;-74
2023/08/22 06:43:15;;;;;;;6.10;2.60;;;20.90;94.50;;;;;;5054921;28;20066;-74
2023/08/22 06:45:41;;;;;;;20.60;13.82;;;20.90;94.40;;;;;;5038094;28;20040;-74
2023/08/22 06:48:07;;;;;;;6.57;2.88;;;20.90;94.50;;;;;;5036634;28;20025;-74
2023/08/22 06:50:33;;;;;;;8.68;3.47;;;21.00;94.50;;;;;;5054105;28;20061;-73
2023/08/22 06:52:59;;;;;;;12.75;3.42;;;21.00;94.40;;;;;;5054305;28;20075;-74
2023/08/22 06:55:25;;;;;;;7.40;2.90;;;21.00;94.40;;;;;;5054462;28;20112;-74
2023/08/22 06:57:51;;;;;;;5.93;2.42;;;21.00;94.30;;;;;;5052898;28;20447;-74
2023/08/22 07:00:16;;;;;;;15.27;6.03;;;21.00;94.30;;;;;;5052890;28;20109;-73
2023/08/22 07:02:44;;;;;;;12.70;6.20;;;21.00;94.30;;;;;;5054227;28;20025;-74
2023/08/22 07:05:11;;;;;;;11.82;4.20;;;21.00;94.40;;;;;;5046073;28;20036;-74
2023/08/22 07:07:37;;;;;;;9.23;3.83;;;21.00;94.50;;;;;;5054213;28;20116;-74
2023/08/22 07:10:05;;;;;;;10.23;3.58;;;21.10;94.40;;;;;;5054069;28;20471;-74
2023/08/22 07:12:31;;;;;;;9.27;5.00;;;21.10;94.40;;;;;;5054103;28;20029;-74
2023/08/22 07:14:57;;;;;;;9.35;4.55;;;21.10;94.30;;;;;;5053617;28;20427;-74
2023/08/22 07:17:22;;;;;;;10.95;3.47;;;21.10;94.20;;;;;;5052738;28;20033;-74
2023/08/22 07:19:48;;;;;;;8.02;4.38;;;21.10;94.30;;;;;;5053588;28;20025;-74
2023/08/22 07:22:13;;;;;;;9.73;2.88;;;21.10;94.30;;;;;;5054465;28;20480;-74
2023/08/22 07:24:39;;;;;;;23.90;9.85;;;21.20;94.40;;;;;;5053932;28;20047;-74
2023/08/22 07:27:05;;;;;;;7.13;3.30;;;21.40;94.40;;;;;;5053733;28;20055;-74
2023/08/22 07:29:30;;;;;;;12.32;2.58;;;21.60;94.40;;;;;;5053595;28;20032;-74
2023/08/22 07:31:59;;;;;;;17.40;8.32;;;21.70;94.30;;;;;;5053792;28;20017;-74
2023/08/22 07:34:25;;;;;;;10.68;2.85;;;21.90;94.20;;;;;;5052576;28;20033;-74
2023/08/22 07:36:51;;;;;;;10.55;6.43;;;22.10;94.00;;;;;;5052654;28;20021;-74
2023/08/22 07:39:18;;;;;;;11.73;7.53;;;22.20;93.90;;;;;;5035868;28;20029;-74
2023/08/22 07:41:43;;;;;;;6.38;4.18;;;22.40;93.70;;;;;;5053239;28;20479;-74
2023/08/22 07:44:09;;;;;;;7.03;1.90;;;22.50;93.50;;;;;;5053432;28;20029;-74
2023/08/22 07:46:34;;;;;;;3.85;1.48;;;22.70;93.40;;;;;;5053657;28;20029;-74
2023/08/22 07:49:00;;;;;;;7.15;3.30;;;22.80;93.20;;;;;;5035632;28;20025;-74
2023/08/22 07:51:26;;;;;;;5.00;2.03;;;23.00;92.60;;;;;;5052286;28;20549;-74
2023/08/22 07:53:53;;;;;;;5.97;2.58;;;23.10;92.20;;;;;;5053096;28;20400;-74
2023/08/22 07:56:18;;;;;;;6.00;3.17;;;23.20;92.00;;;;;;5050909;28;20033;-74
2023/08/22 07:58:44;;;;;;;7.72;2.25;;;23.30;91.90;;;;;;5053061;28;20079;-74
2023/08/22 08:01:09;;;;;;;8.13;1.70;;;23.50;91.80;;;;;;5042098;28;20131;-74
2023/08/22 08:03:35;;;;;;;2.75;1.50;;;23.50;91.50;;;;;;5048085;28;20033;-74
2023/08/22 08:06:00;;;;;;;4.03;1.45;;;23.50;91.30;;;;;;5053015;28;20025;-74
2023/08/22 08:08:26;;;;;;;2.08;1.13;;;23.50;91.10;;;;;;5053381;28;20036;-74
2023/08/22 08:10:52;;;;;;;4.82;2.10;;;23.50;91.20;;;;;;5052842;28;20452;-74
2023/08/22 08:13:17;;;;;;;6.30;1.70;;;23.70;91.50;;;;;;5052802;28;20031;-74
2023/08/22 08:15:43;;;;;;;4.30;1.13;;;23.90;91.10;;;;;;5052720;28;20052;-74
2023/08/22 08:18:10;;;;;;;7.15;1.60;;;24.10;91.10;;;;;;5049199;28;20029;-74
2023/08/22 08:20:38;;;;;;;4.93;1.27;;;24.20;90.70;;;;;;5048099;28;20437;-74
2023/08/22 08:23:04;;;;;;;3.53;0.95;;;24.40;90.40;;;;;;5051872;28;20027;-74
2023/08/22 08:25:30;;;;;;;5.60;1.52;;;24.60;90.20;;;;;;5053304;28;20029;-75
2023/08/22 08:27:56;;;;;;;5.88;1.30;;;24.70;88.50;;;;;;5053626;28;20036;-75
2023/08/22 08:30:22;;;;;;;4.18;1.27;;;24.80;88.60;;;;;;5054014;28;20063;-75
2023/08/22 08:32:47;;;;;;;3.72;1.10;;;24.90;89.30;;;;;;5053082;28;20106;-75
2023/08/22 08:35:13;;;;;;;2.80;0.95;;;25.30;86.70;;;;;;5053251;28;20036;-75
2023/08/22 08:37:38;;;;;;;5.10;2.22;;;25.30;85.70;;;;;;5051269;28;20029;-75
2023/08/22 08:40:08;;;;;;;4.68;1.58;;;25.40;86.00;;;;;;5052414;28;20024;-75
2023/08/22 08:42:36;;;;;;;9.75;2.17;;;25.60;86.40;;;;;;5052694;28;20455;-75
2023/08/22 08:45:04;;;;;;;9.50;2.00;;;25.90;85.90;;;;;;5052552;28;20024;-75
2023/08/22 08:47:32;;;;;;;4.13;0.98;;;26.10;85.10;;;;;;5051188;28;20116;-75
2023/08/22 08:50:00;;;;;;;2.35;0.85;;;26.20;84.80;;;;;;5052699;28;20039;-75
2023/08/22 08:52:26;;;;;;;5.78;0.90;;;26.30;83.30;;;;;;5052298;28;20028;-75
2023/08/22 08:54:59;;;;;;;3.58;0.90;;;26.40;83.90;;;;;;5051104;28;20456;-75
2023/08/22 08:57:26;;;;;;;7.05;1.65;;;26.50;83.30;;;;;;5051928;28;20021;-75
2023/08/22 08:59:52;;;;;;;2.78;0.98;;;26.50;83.20;;;;;;5052211;28;20406;-75
2023/08/22 09:02:19;;;;;;;4.13;1.52;;;26.60;82.30;;;;;;5052812;28;20033;-75
2023/08/22 09:04:44;;;;;;;4.13;1.08;;;26.60;82.00;;;;;;5033805;28;20036;-75
2023/08/22 09:07:10;;;;;;;6.72;1.17;;;26.70;82.70;;;;;;5047126;28;20025;-74
2023/08/22 09:09:36;;;;;;;4.78;1.23;;;26.80;81.80;;;;;;5047670;28;20021;-75
2023/08/22 09:12:07;;;;;;;5.82;1.65;;;26.90;81.70;;;;;;5051850;28;20029;-75
2023/08/22 09:14:33;;;;;;;3.42;0.95;;;27.00;81.00;;;;;;5052510;28;20375;-75
2023/08/22 09:17:01;;;;;;;3.40;1.17;;;27.10;80.90;;;;;;5051717;28;20021;-75
2023/08/22 09:19:32;;;;;;;2.20;1.10;;;27.10;79.00;;;;;;5052147;28;20053;-75
2023/08/22 09:21:59;;;;;;;4.50;1.55;;;27.20;78.90;;;;;;5052397;28;20115;-75
2023/08/22 09:24:27;;;;;;;4.80;1.75;;;27.20;78.50;;;;;;5051200;28;20387;-75
2023/08/22 09:26:52;;;;;;;1.67;0.70;;;27.30;79.20;;;;;;5051928;28;20126;-75
2023/08/22 09:29:29;;;;;;;3.22;1.17;;;27.40;79.20;;;;;;5052148;28;20475;-75
2023/08/22 09:32:01;;;;;;;3.00;1.13;;;27.70;78.20;;;;;;5034192;28;20035;-75
2023/08/22 09:34:26;;;;;;;10.18;2.00;;;27.90;77.20;;;;;;5033843;28;20100;-75
2023/08/22 09:36:53;;;;;;;3.05;1.02;;;27.90;77.00;;;;;;5051766;28;20160;-75
2023/08/22 09:39:19;;;;;;;3.95;0.70;;;27.90;75.30;;;;;;5051974;28;20029;-75
2023/08/22 09:41:45;;;;;;;2.22;0.88;;;27.80;75.10;;;;;;5050441;28;20036;-76
2023/08/22 09:44:11;;;;;;;6.70;1.23;;;27.50;74.10;;;;;;5051976;28;20029;-75
2023/08/22 09:46:44;;;;;;;4.10;0.82;;;27.30;74.80;;;;;;5051836;28;20031;-75
2023/08/22 09:49:15;;;;;;;4.78;0.70;;;27.20;73.90;;;;;;5034066;28;20051;-75
2023/08/22 09:51:42;;;;;;;4.68;0.82;;;26.90;74.80;;;;;;5051650;28;20087;-75
2023/08/22 09:54:08;;;;;;;2.70;1.00;;;26.70;74.90;;;;;;5051465;28;20375;-75
2023/08/22 09:56:34;;;;;;;2.35;0.80;;;26.60;75.40;;;;;;5048035;28;20545;-75
2023/08/22 09:59:01;;;;;;;3.00;1.02;;;26.70;75.80;;;;;;5051486;28;20028;-75
2023/08/22 10:01:28;;;;;;;4.15;1.27;;;26.80;75.60;;;;;;5055988;28;20499;-75
2023/08/22 10:03:55;;;;;;;1.80;0.95;;;26.90;76.00;;;;;;5055357;28;20514;-75
2023/08/22 10:06:28;;;;;;;2.08;1.08;;;27.00;76.00;;;;;;5055647;28;20127;-75
2023/08/22 10:08:54;;;;;;;3.13;1.42;;;27.00;76.50;;;;;;5055130;28;20032;-75
2023/08/22 10:11:22;;;;;;;3.95;1.48;;;27.30;76.20;;;;;;5055463;28;20106;-75
2023/08/22 10:13:50;;;;;;;3.95;1.23;;;27.30;76.30;;;;;;5055618;28;20024;-75
2023/08/22 10:16:15;;;;;;;4.30;1.10;;;27.30;76.20;;;;;;5055542;28;20024;-75
2023/08/22 10:18:41;;;;;;;2.25;1.33;;;27.50;76.20;;;;;;5055111;28;20468;-76
2023/08/22 10:21:07;;;;;;;4.07;1.42;;;27.60;76.40;;;;;;5055390;28;20029;-75
2023/08/22 10:23:55;;;;;;;6.53;1.38;;;27.80;76.30;;;;;;5055104;28;20021;-75
2023/08/22 10:26:46;;;;;;;4.38;1.13;;;28.00;76.00;;;;;;5048326;28;20108;-75
2023/08/22 10:29:18;;;;;;;5.03;1.83;;;28.00;75.80;;;;;;5055682;28;20021;-75
2023/08/22 10:32:03;;;;;;;6.65;2.17;;;28.20;76.10;;;;;;5054135;28;20025;-75
2023/08/22 10:34:34;;;;;;;11.70;2.78;;;28.50;76.00;;;;;;5053766;28;20021;-75
2023/08/22 10:37:01;;;;;;;8.48;2.22;;;28.60;75.40;;;;;;5054632;28;20032;-81
2023/08/22 10:39:43;;;;;;;8.93;2.20;;;28.50;75.90;;;;;;5055106;28;20500;-75
2023/08/22 10:42:16;;;;;;;3.67;1.67;;;28.50;75.50;;;;;;5055183;28;20032;-75
2023/08/22 10:44:45;;;;;;;9.10;3.33;;;28.30;76.00;;;;;;5054684;28;20116;-75
2023/08/22 10:47:32;;;;;;;3.45;1.90;;;28.20;76.10;;;;;;5054674;28;20017;-75
2023/08/22 10:49:59;;;;;;;9.73;2.00;;;28.20;76.10;;;;;;5052252;28;20451;-75
2023/08/22 10:52:35;;;;;;;9.10;2.25;;;27.90;76.70;;;;;;5053712;28;20029;-75
2023/08/22 10:55:11;;;;;;;;;;;27.80;77.30;;;;;;5054901;28;20021;-75
2023/08/22 10:57:45;;;;;;;5.05;1.83;;;27.90;77.10;;;;;;5054546;28;19908;-75
2023/08/22 11:00:19;;;;;;;6.47;2.10;;;28.00;77.40;;;;;;5054760;28;20086;-75
2023/08/22 11:02:57;;;;;;;3.10;1.73;;;27.90;76.20;;;;;;5054197;28;20051;-75
2023/08/22 11:05:22;;;;;;;4.07;1.75;;;28.00;77.20;;;;;;5047345;28;20028;-76
2023/08/22 11:07:49;;;;;;;7.22;1.50;;;28.00;77.50;;;;;;5054309;28;20457;-75
2023/08/22 11:10:18;;;;;;;5.35;2.30;;;28.00;77.60;;;;;;5053169;28;20031;-75
2023/08/22 11:12:46;;;;;;;5.68;1.67;;;27.90;78.10;;;;;;5054422;28;20403;-75
2023/08/22 11:15:16;;;;;;;5.28;2.22;;;28.00;78.00;;;;;;5054391;28;20040;-75
2023/08/22 11:17:43;;;;;;;4.32;1.48;;;27.90;78.10;;;;;;5053917;28;20537;-75
2023/08/22 11:20:13;;;;;;;4.55;1.30;;;27.90;78.50;;;;;;5054093;28;20060;-75
2023/08/22 11:22:43;;;;;;;10.52;2.60;;;27.90;78.50;;;;;;5053568;28;20499;-75
2023/08/22 11:25:10;;;;;;;5.90;1.60;;;27.70;77.90;;;;;;5054087;28;20116;-75
2023/08/22 11:27:40;;;;;;;6.93;1.95;;;27.50;78.40;;;;;;5052379;28;20441;-75
2023/08/22 11:30:08;;;;;;;3.20;1.60;;;27.30;78.30;;;;;;5053530;28;20052;-75
2023/08/22 11:32:38;;;;;;;8.10;1.55;;;27.20;78.20;;;;;;5053582;28;20036;-75
2023/08/22 11:35:08;;;;;;;4.50;1.40;;;27.20;78.30;;;;;;5053241;28;20549;-76
2023/08/22 11:37:35;;;;;;;5.57;1.70;;;27.00;77.80;;;;;;5052942;28;20059;-75
2023/08/22 11:40:03;;;;;;;4.15;2.45;;;26.90;78.00;;;;;;5051494;28;20569;-75
2023/08/22 11:42:33;;;;;;;2.30;1.80;;;26.90;78.60;;;;;;5051872;28;20381;-75
2023/08/22 11:45:10;;;;;;;2.70;1.92;;;27.00;78.50;;;;;;5052939;28;20462;-75
2023/08/22 11:47:43;;;;;;;7.93;2.60;;;27.10;78.40;;;;;;5050535;28;20025;-75
2023/08/22 11:50:16;;;;;;;5.20;1.80;;;27.20;78.10;;;;;;5051089;28;20029;-75
2023/08/22 11:52:43;;;;;;;3.65;1.67;;;27.00;78.00;;;;;;5051303;28;20017;-75
2023/08/22 11:55:10;;;;;;;5.45;1.40;;;27.10;77.80;;;;;;5052829;28;20483;-75
2023/08/22 11:57:39;;;;;;;6.88;2.10;;;27.10;77.00;;;;;;5053280;28;20032;-75
2023/08/22 12:00:08;;;;;;;6.05;2.05;;;27.10;77.90;;;;;;5052991;28;20025;-75
2023/08/22 12:02:35;;;;;;;3.10;1.17;;;27.10;76.20;;;;;;5052680;28;20108;-75
2023/08/22 12:05:01;;;;;;;5.82;2.10;;;27.20;76.80;;;;;;5051639;28;20115;-75
2023/08/22 12:07:27;;;;;;;6.65;2.00;;;27.40;75.50;;;;;;5052198;28;20090;-75
2023/08/22 12:09:59;;;;;;;3.72;1.67;;;27.40;75.40;;;;;;5051564;28;20032;-74
2023/08/22 12:12:25;;;;;;;6.25;2.08;;;27.40;75.20;;;;;;5044981;28;20295;-75
2023/08/22 12:14:51;;;;;;;4.63;2.47;;;27.40;75.50;;;;;;5052425;28;20044;-74
2023/08/22 12:17:18;;;;;;;3.65;1.40;;;27.60;74.80;;;;;;5052464;28;20503;-75
2023/08/22 12:19:44;;;;;;;7.10;1.98;;;27.60;74.20;;;;;;5052135;28;20035;-75
2023/08/22 12:22:09;;;;;;;6.63;1.52;;;27.40;74.20;;;;;;5051100;28;20021;-75
2023/08/22 12:24:35;;;;;;;3.33;1.70;;;27.20;74.60;;;;;;5052127;28;20025;-75
2023/08/22 12:27:00;;;;;;;8.00;1.90;;;27.00;73.90;;;;;;5051924;28;20029;-75
2023/08/22 12:29:26;;;;;;;3.85;1.63;;;26.80;74.50;;;;;;5044860;28;20475;-75
2023/08/22 12:31:52;;;;;;;4.53;1.45;;;26.80;74.70;;;;;;5051880;28;20067;-75
2023/08/22 12:34:17;;;;;;;7.00;2.10;;;26.70;75.00;;;;;;5052348;28;20037;-75
2023/08/22 12:36:43;;;;;;;3.97;2.03;;;26.60;75.70;;;;;;5052035;28;20387;-75
2023/08/22 12:39:12;;;;;;;5.90;1.55;;;26.60;75.80;;;;;;5050980;28;20550;-75
2023/08/22 12:41:40;;;;;;;7.88;1.83;;;26.60;76.10;;;;;;5052123;28;20642;-75
2023/08/22 12:44:05;;;;;;;5.75;1.30;;;26.60;76.30;;;;;;5052344;28;20052;-75